createdAt,value
2023-05-16T00:02:12.215Z,9.70
2023-05-16T00:04:38.899Z,9.70
2023-05-16T00:07:05.508Z,9.60
2023-05-16T00:09:32.068Z,9.60
2023-05-16T00:11:58.627Z,9.60
2023-05-16T00:14:25.694Z,9.60
2023-05-16T00:16:55.667Z,9.50
2023-05-16T00:19:22.396Z,9.50
2023-05-16T00:21:49.071Z,9.40
2023-05-16T00:24:15.664Z,9.40
2023-05-16T00:26:42.223Z,9.40
2023-05-16T00:29:08.791Z,9.40
2023-05-16T00:31:35.453Z,9.50
2023-05-16T00:34:02.123Z,9.50
2023-05-16T00:36:28.752Z,9.50
2023-05-16T00:38:55.305Z,9.50
2023-05-16T00:41:21.895Z,9.50
2023-05-16T00:43:48.459Z,9.40
2023-05-16T00:46:15.043Z,9.40
2023-05-16T00:48:41.760Z,9.40
2023-05-16T00:51:08.437Z,9.40
2023-05-16T00:53:35.909Z,9.50
2023-05-16T00:56:02.719Z,9.50
2023-05-16T00:58:31.067Z,9.50
2023-05-16T01:00:57.940Z,9.40
2023-05-16T01:03:24.691Z,9.40
2023-05-16T01:05:51.581Z,9.40
2023-05-16T01:08:18.119Z,9.40
2023-05-16T01:10:58.829Z,9.40
2023-05-16T01:13:33.618Z,9.30
2023-05-16T01:16:26.098Z,9.30
2023-05-16T01:19:03.562Z,9.30
2023-05-16T01:21:56.363Z,9.30
2023-05-16T01:24:33.999Z,9.30
2023-05-16T01:27:00.765Z,9.30
2023-05-16T01:29:27.434Z,9.20
2023-05-16T01:31:54.019Z,9.20
2023-05-16T01:34:20.611Z,9.10
2023-05-16T01:37:05.150Z,9.00
2023-05-16T01:40:03.394Z,9.00
2023-05-16T01:42:34.865Z,9.00
2023-05-16T01:45:18.263Z,8.90
2023-05-16T01:47:51.856Z,8.90
2023-05-16T01:50:22.009Z,8.90
2023-05-16T01:52:56.430Z,8.90
2023-05-16T01:55:40.816Z,8.80
2023-05-16T01:58:08.965Z,8.80
2023-05-16T02:00:35.639Z,8.80
2023-05-16T02:03:02.694Z,8.80
2023-05-16T02:05:29.361Z,8.80
2023-05-16T02:07:58.327Z,8.80
2023-05-16T02:10:25.425Z,8.80
2023-05-16T02:12:52.510Z,8.70
2023-05-16T02:15:19.439Z,8.60
2023-05-16T02:17:46.036Z,8.50
2023-05-16T02:20:12.978Z,8.60
2023-05-16T02:22:39.610Z,8.50
2023-05-16T02:25:06.945Z,8.50
2023-05-16T02:27:33.550Z,8.60
2023-05-16T02:30:00.243Z,8.50
2023-05-16T02:32:26.869Z,8.50
2023-05-16T02:34:53.472Z,8.50
2023-05-16T02:37:20.027Z,8.50
2023-05-16T02:39:46.608Z,8.50
2023-05-16T02:42:13.208Z,8.60
2023-05-16T02:44:39.760Z,8.50
2023-05-16T02:47:06.362Z,8.60
2023-05-16T02:49:32.908Z,8.60
2023-05-16T02:51:59.496Z,8.70
2023-05-16T02:54:26.043Z,8.60
2023-05-16T02:56:52.588Z,8.70
2023-05-16T02:59:22.077Z,8.70
2023-05-16T03:01:48.677Z,8.70
2023-05-16T03:04:15.352Z,8.70
2023-05-16T03:06:41.957Z,8.70
2023-05-16T03:09:08.809Z,8.70
2023-05-16T03:11:36.813Z,8.70
2023-05-16T03:14:03.645Z,8.70
2023-05-16T03:16:30.232Z,8.70
2023-05-16T03:18:56.860Z,8.80
2023-05-16T03:21:23.432Z,8.80
2023-05-16T03:23:49.981Z,8.80
2023-05-16T03:26:16.653Z,8.80
2023-05-16T03:28:43.185Z,8.70
2023-05-16T03:31:09.811Z,8.70
2023-05-16T03:33:36.455Z,8.70
2023-05-16T03:36:03.155Z,8.60
2023-05-16T03:38:29.721Z,8.60
2023-05-16T03:40:56.295Z,8.60
2023-05-16T03:43:22.871Z,8.60
2023-05-16T03:45:49.549Z,8.60
2023-05-16T03:48:16.172Z,8.70
2023-05-16T03:50:42.750Z,8.70
2023-05-16T03:53:10.045Z,8.70
2023-05-16T03:55:36.617Z,8.70
2023-05-16T03:58:03.227Z,8.70
2023-05-16T04:00:29.954Z,8.70
2023-05-16T04:02:56.845Z,8.70
2023-05-16T04:05:23.507Z,8.70
2023-05-16T04:07:50.104Z,8.80
2023-05-16T04:10:16.841Z,8.80
2023-05-16T04:12:43.704Z,8.80
2023-05-16T04:15:10.967Z,8.70
2023-05-16T04:17:37.755Z,8.70
2023-05-16T04:20:04.787Z,8.70
2023-05-16T04:22:31.411Z,8.80
2023-05-16T04:24:58.056Z,8.80
2023-05-16T04:27:24.606Z,8.90
2023-05-16T04:29:51.154Z,8.80
2023-05-16T04:32:17.743Z,8.80
2023-05-16T04:34:44.306Z,8.80
2023-05-16T04:37:10.906Z,8.80
2023-05-16T04:39:37.977Z,8.80
2023-05-16T04:42:06.027Z,8.80
2023-05-16T04:44:32.606Z,8.80
2023-05-16T04:46:59.164Z,8.80
2023-05-16T04:49:25.787Z,8.80
2023-05-16T04:51:52.403Z,8.80
2023-05-16T04:54:18.965Z,8.90
2023-05-16T04:56:45.523Z,8.90
2023-05-16T04:59:12.129Z,8.90
2023-05-16T05:01:38.817Z,8.90
2023-05-16T05:04:05.432Z,8.90
2023-05-16T05:06:32.040Z,8.90
2023-05-16T05:08:58.603Z,8.90
2023-05-16T05:11:25.187Z,8.90
2023-05-16T05:13:53.094Z,9.00
2023-05-16T05:16:19.808Z,9.00
2023-05-16T05:18:46.451Z,9.00
2023-05-16T05:21:13.210Z,9.10
2023-05-16T05:23:40.289Z,9.10
2023-05-16T05:26:06.947Z,9.10
2023-05-16T05:28:33.538Z,9.10
2023-05-16T05:31:00.111Z,9.20
2023-05-16T05:33:27.704Z,9.20
2023-05-16T05:35:54.279Z,9.30
2023-05-16T05:38:20.806Z,9.30
2023-05-16T05:40:47.393Z,9.40
2023-05-16T05:43:13.979Z,9.40
2023-05-16T05:45:40.748Z,9.50
2023-05-16T05:48:07.708Z,9.60
2023-05-16T05:50:34.325Z,9.60
2023-05-16T05:53:00.872Z,9.60
2023-05-16T05:55:27.721Z,9.70
2023-05-16T05:57:54.438Z,9.70
2023-05-16T06:00:21.188Z,9.80
2023-05-16T06:02:48.550Z,9.80
2023-05-16T06:05:15.269Z,9.90
2023-05-16T06:07:41.880Z,9.90
2023-05-16T06:10:08.761Z,9.80
2023-05-16T06:12:35.357Z,9.90
2023-05-16T06:15:02.027Z,9.90
2023-05-16T06:17:28.787Z,10.00
2023-05-16T06:19:55.392Z,10.00
2023-05-16T06:22:22.055Z,10.10
2023-05-16T06:24:48.637Z,10.10
2023-05-16T06:27:15.221Z,10.20
2023-05-16T06:29:41.786Z,10.20
2023-05-16T06:32:09.349Z,10.20
2023-05-16T06:34:36.934Z,10.10
2023-05-16T06:37:03.481Z,10.10
2023-05-16T06:39:30.021Z,10.10
2023-05-16T06:41:56.854Z,10.10
2023-05-16T06:44:24.156Z,10.10
2023-05-16T06:46:50.790Z,10.10
2023-05-16T06:49:17.436Z,10.10
2023-05-16T06:51:44.108Z,10.20
2023-05-16T06:54:10.709Z,10.20
2023-05-16T06:56:37.396Z,10.30
2023-05-16T06:59:04.025Z,10.30
2023-05-16T07:01:30.704Z,10.40
2023-05-16T07:03:57.496Z,10.50
2023-05-16T07:06:24.210Z,10.50
2023-05-16T07:08:51.103Z,10.50
2023-05-16T07:11:17.712Z,10.50
2023-05-16T07:13:44.347Z,10.60
2023-05-16T07:16:11.042Z,10.60
2023-05-16T07:18:37.808Z,10.70
2023-05-16T07:21:04.530Z,10.70
2023-05-16T07:23:31.128Z,10.70
2023-05-16T07:25:58.370Z,10.60
2023-05-16T07:28:25.054Z,10.60
2023-05-16T07:30:51.701Z,10.70
2023-05-16T07:33:18.591Z,10.80
2023-05-16T07:35:45.245Z,10.90
2023-05-16T07:38:11.895Z,10.80
2023-05-16T07:40:38.533Z,10.90
2023-05-16T07:43:05.155Z,11.00
2023-05-16T07:45:31.800Z,11.20
2023-05-16T07:47:58.481Z,11.40
2023-05-16T07:50:25.255Z,11.40
2023-05-16T07:52:51.847Z,11.60
2023-05-16T07:55:18.491Z,11.60
2023-05-16T07:57:45.152Z,11.70
2023-05-16T08:00:12.264Z,11.70
2023-05-16T08:02:39.044Z,11.90
2023-05-16T08:05:06.525Z,12.00
2023-05-16T08:07:33.385Z,11.90
2023-05-16T08:09:59.993Z,11.90
2023-05-16T08:12:26.661Z,11.90
2023-05-16T08:14:53.268Z,12.00
2023-05-16T08:17:19.880Z,12.10
2023-05-16T08:19:46.474Z,12.10
2023-05-16T08:22:13.121Z,12.20
2023-05-16T08:24:39.746Z,12.10
2023-05-16T08:27:06.369Z,12.20
2023-05-16T08:29:32.969Z,12.20
2023-05-16T08:31:59.717Z,12.20
2023-05-16T08:34:26.498Z,12.30
2023-05-16T08:36:53.133Z,12.40
2023-05-16T08:39:19.771Z,12.40
2023-05-16T08:41:46.413Z,12.40
2023-05-16T08:44:13.184Z,12.50
2023-05-16T08:46:41.099Z,12.40
2023-05-16T08:49:09.545Z,12.40
2023-05-16T08:51:38.250Z,12.50
2023-05-16T08:54:08.977Z,12.50
2023-05-16T08:56:37.661Z,12.50
2023-05-16T08:59:04.814Z,12.40
2023-05-16T09:01:31.833Z,12.50
2023-05-16T09:03:59.569Z,12.60
2023-05-16T09:06:27.138Z,12.60
2023-05-16T09:08:54.263Z,12.60
2023-05-16T09:11:20.891Z,12.70
2023-05-16T09:13:48.196Z,12.70
2023-05-16T09:16:20.412Z,12.60
2023-05-16T09:18:55.254Z,12.70
2023-05-16T09:21:22.295Z,12.70
2023-05-16T09:23:49.966Z,12.80
2023-05-16T09:26:16.757Z,12.80
2023-05-16T09:28:43.939Z,12.90
2023-05-16T09:31:24.593Z,12.90
2023-05-16T09:33:51.250Z,12.90
2023-05-16T09:36:17.880Z,13.10
2023-05-16T09:38:44.786Z,13.10
2023-05-16T09:41:11.841Z,13.00
2023-05-16T09:43:41.989Z,13.10
2023-05-16T09:46:08.986Z,13.10
2023-05-16T09:48:35.680Z,13.20
2023-05-16T09:51:05.790Z,13.10
2023-05-16T09:53:33.478Z,13.10
2023-05-16T09:56:14.160Z,13.10
2023-05-16T09:58:42.407Z,13.00
2023-05-16T10:01:10.316Z,13.10
2023-05-16T10:03:39.824Z,13.10
2023-05-16T10:06:07.778Z,13.10
2023-05-16T10:08:36.700Z,13.20
2023-05-16T10:11:05.529Z,13.20
2023-05-16T10:13:36.854Z,13.10
2023-05-16T10:16:09.977Z,13.10
2023-05-16T10:18:39.613Z,13.10
2023-05-16T10:21:11.244Z,13.20
2023-05-16T10:23:42.162Z,13.20
2023-05-16T10:26:09.369Z,13.20
2023-05-16T10:28:36.354Z,13.30
2023-05-16T10:31:03.181Z,13.40
2023-05-16T10:33:29.791Z,13.40
2023-05-16T10:35:56.915Z,13.50
2023-05-16T10:38:24.108Z,13.50
2023-05-16T10:40:51.322Z,13.70
2023-05-16T10:43:26.089Z,13.70
2023-05-16T10:45:57.260Z,13.60
2023-05-16T10:48:38.106Z,13.70
2023-05-16T10:51:35.146Z,13.80
2023-05-16T10:54:10.332Z,13.90
2023-05-16T10:56:37.216Z,13.80
2023-05-16T10:59:03.986Z,13.70
2023-05-16T11:01:32.593Z,13.60
2023-05-16T11:03:59.371Z,13.60
2023-05-16T11:06:45.310Z,13.60
2023-05-16T11:09:11.902Z,13.60
2023-05-16T11:11:47.218Z,13.80
2023-05-16T11:14:21.597Z,13.70
2023-05-16T11:17:02.655Z,13.70
2023-05-16T11:19:34.010Z,13.60
2023-05-16T11:22:09.113Z,13.60
2023-05-16T11:24:37.750Z,13.60
2023-05-16T11:27:05.616Z,13.80
2023-05-16T11:29:33.829Z,13.80
2023-05-16T11:32:02.647Z,13.70
2023-05-16T11:34:30.277Z,13.80
2023-05-16T11:36:56.955Z,13.70
2023-05-16T11:39:23.741Z,13.70
2023-05-16T11:41:50.824Z,13.70
2023-05-16T11:44:17.453Z,13.70
2023-05-16T11:46:44.166Z,13.70
2023-05-16T11:49:10.795Z,13.70
2023-05-16T11:51:41.127Z,13.70
2023-05-16T11:54:09.600Z,13.80
2023-05-16T11:56:36.909Z,13.90
2023-05-16T11:59:03.688Z,13.90
2023-05-16T12:01:40.001Z,13.90
2023-05-16T12:04:14.251Z,13.80
2023-05-16T12:06:42.492Z,13.90
2023-05-16T12:09:13.185Z,13.90
2023-05-16T12:11:41.306Z,14.00
2023-05-16T12:14:10.063Z,14.00
2023-05-16T12:16:38.699Z,14.10
2023-05-16T12:19:06.240Z,14.00
2023-05-16T12:21:33.114Z,14.10
2023-05-16T12:24:00.106Z,14.10
2023-05-16T12:26:31.150Z,14.20
2023-05-16T12:28:58.913Z,14.20
2023-05-16T12:31:32.333Z,13.90
2023-05-16T12:33:59.763Z,13.70
2023-05-16T12:36:26.616Z,13.70
2023-05-16T12:38:53.891Z,13.70
2023-05-16T12:41:21.985Z,13.60
2023-05-16T12:43:51.596Z,13.60
2023-05-16T12:46:19.838Z,13.60
2023-05-16T12:48:46.591Z,13.70
2023-05-16T12:51:14.692Z,13.60
2023-05-16T12:54:08.659Z,13.60
2023-05-16T12:56:36.188Z,13.80
2023-05-16T12:59:02.811Z,13.80
2023-05-16T13:01:29.517Z,13.80
2023-05-16T13:03:56.225Z,13.80
2023-05-16T13:06:22.861Z,13.80
2023-05-16T13:08:49.473Z,13.80
2023-05-16T13:11:16.073Z,13.70
2023-05-16T13:13:42.683Z,13.60
2023-05-16T13:16:09.283Z,13.50
2023-05-16T13:18:36.034Z,13.60
2023-05-16T13:21:03.232Z,13.60
2023-05-16T13:23:30.121Z,13.50
2023-05-16T13:25:57.003Z,13.50
2023-05-16T13:28:23.617Z,13.60
2023-05-16T13:30:50.251Z,13.50
2023-05-16T13:33:17.175Z,13.40
2023-05-16T13:35:44.592Z,13.50
2023-05-16T13:38:11.224Z,13.50
2023-05-16T13:40:37.826Z,13.60
2023-05-16T13:43:04.542Z,13.50
2023-05-16T13:45:31.185Z,13.40
2023-05-16T13:47:57.845Z,13.40
2023-05-16T13:50:24.505Z,13.50
2023-05-16T13:52:51.106Z,13.60
2023-05-16T13:55:17.770Z,13.60
2023-05-16T13:57:46.682Z,13.50
2023-05-16T14:02:43.756Z,13.30
2023-05-16T14:05:10.507Z,13.40
2023-05-16T14:07:37.165Z,13.50
2023-05-16T14:10:03.879Z,13.40
2023-05-16T14:12:30.518Z,13.50
2023-05-16T14:14:57.162Z,13.40
2023-05-16T14:17:23.778Z,13.30
2023-05-16T14:19:50.377Z,13.30
2023-05-16T14:22:16.966Z,13.20
2023-05-16T14:24:43.564Z,13.10
2023-05-16T14:27:10.209Z,13.20
2023-05-16T14:29:36.802Z,13.10
2023-05-16T14:32:03.577Z,13.10
2023-05-16T14:34:30.255Z,13.00
2023-05-16T14:36:56.895Z,12.90
2023-05-16T14:39:23.512Z,12.90
2023-05-16T14:41:50.107Z,12.70
2023-05-16T14:44:16.700Z,12.60
2023-05-16T14:46:43.440Z,12.50
2023-05-16T14:49:10.203Z,12.50
2023-05-16T14:51:36.821Z,12.40
2023-05-16T14:54:03.529Z,12.40
2023-05-16T14:56:30.186Z,12.40
2023-05-16T14:58:56.768Z,12.50
2023-05-16T15:01:23.413Z,12.40
2023-05-16T15:03:56.016Z,12.30
2023-05-16T15:06:24.147Z,12.30
2023-05-16T15:08:50.995Z,12.30
2023-05-16T15:11:17.738Z,12.40
2023-05-16T15:13:44.403Z,12.30
2023-05-16T15:16:11.195Z,12.30
2023-05-16T15:18:38.075Z,12.30
2023-05-16T15:21:04.736Z,12.30
2023-05-16T15:23:31.382Z,12.40
2023-05-16T15:25:57.989Z,12.40
2023-05-16T15:28:24.602Z,12.40
2023-05-16T15:30:51.609Z,12.40
2023-05-16T15:33:18.260Z,12.40
2023-05-16T15:35:45.134Z,12.30
2023-05-16T15:38:11.861Z,12.20
2023-05-16T15:40:38.718Z,12.20
2023-05-16T15:43:05.295Z,12.20
2023-05-16T15:45:32.008Z,12.20
2023-05-16T15:47:58.651Z,12.10
2023-05-16T15:50:25.381Z,12.00
2023-05-16T15:52:51.972Z,12.10
2023-05-16T15:55:18.695Z,12.00
2023-05-16T15:57:45.301Z,12.00
2023-05-16T16:00:12.533Z,12.00
2023-05-16T16:02:39.203Z,12.00
2023-05-16T16:05:06.380Z,12.00
2023-05-16T16:07:33.026Z,11.90
2023-05-16T16:09:59.672Z,11.90
2023-05-16T16:12:28.803Z,11.80
2023-05-16T16:14:55.419Z,11.70
2023-05-16T16:17:22.028Z,11.80
2023-05-16T16:19:48.619Z,11.80
2023-05-16T16:22:15.271Z,11.80
2023-05-16T16:24:41.858Z,11.80
2023-05-16T16:27:08.512Z,11.80
2023-05-16T16:29:35.141Z,11.80
2023-05-16T16:32:01.738Z,11.70
2023-05-16T16:34:28.336Z,11.70
2023-05-16T16:36:54.949Z,11.70
2023-05-16T16:39:21.525Z,11.70
2023-05-16T16:41:48.121Z,11.70
2023-05-16T16:44:14.773Z,11.80
2023-05-16T16:46:41.431Z,11.80
2023-05-16T16:49:08.080Z,11.80
2023-05-16T16:51:34.843Z,11.70
2023-05-16T16:54:01.535Z,11.70
2023-05-16T16:56:28.140Z,11.70
2023-05-16T16:58:56.090Z,11.60
2023-05-16T17:01:22.776Z,11.60
2023-05-16T17:03:49.424Z,11.60
2023-05-16T17:06:16.043Z,11.60
2023-05-16T17:08:42.674Z,11.60
2023-05-16T17:11:09.509Z,11.60
2023-05-16T17:13:36.102Z,11.60
2023-05-16T17:16:03.545Z,11.60
2023-05-16T17:18:31.704Z,11.60
2023-05-16T17:21:00.555Z,11.60
2023-05-16T17:23:27.140Z,11.60
2023-05-16T17:25:53.724Z,11.60
2023-05-16T17:28:20.333Z,11.70
2023-05-16T17:30:46.931Z,11.70
2023-05-16T17:33:13.526Z,11.70
2023-05-16T17:35:40.200Z,11.70
2023-05-16T17:38:06.799Z,11.70
2023-05-16T17:40:33.429Z,11.80
2023-05-16T17:43:00.010Z,11.80
2023-05-16T17:45:26.869Z,11.80
2023-05-16T17:47:53.691Z,11.70
2023-05-16T17:50:20.414Z,11.60
2023-05-16T17:52:47.067Z,11.70
2023-05-16T17:55:13.681Z,11.60
2023-05-16T17:57:40.344Z,11.60
2023-05-16T18:00:07.607Z,11.60
2023-05-16T18:02:38.531Z,11.50
2023-05-16T18:05:06.110Z,11.50
2023-05-16T18:07:32.861Z,11.50
2023-05-16T18:09:59.569Z,11.40
2023-05-16T18:12:26.275Z,11.40
2023-05-16T18:14:52.996Z,11.40
2023-05-16T18:17:19.611Z,11.40
2023-05-16T18:19:46.288Z,11.40
2023-05-16T18:22:12.984Z,11.30
2023-05-16T18:24:39.612Z,11.30
2023-05-16T18:27:06.524Z,11.40
2023-05-16T18:29:33.205Z,11.30
2023-05-16T18:31:59.914Z,11.30
2023-05-16T18:34:26.565Z,11.30
2023-05-16T18:36:53.199Z,11.30
2023-05-16T18:39:19.802Z,11.20
2023-05-16T18:41:47.246Z,11.20
2023-05-16T18:44:14.338Z,11.20
2023-05-16T18:46:40.977Z,11.10
2023-05-16T18:49:07.652Z,11.10
2023-05-16T18:51:34.258Z,11.00
2023-05-16T18:54:00.890Z,11.00
2023-05-16T18:56:27.534Z,11.00
2023-05-16T18:58:54.109Z,11.00
2023-05-16T19:01:20.796Z,11.00
2023-05-16T19:03:48.309Z,10.90
2023-05-16T19:06:15.303Z,10.90
2023-05-16T19:08:48.193Z,10.90
2023-05-16T19:11:16.714Z,10.90
2023-05-16T19:13:43.719Z,10.90
2023-05-16T19:16:10.683Z,10.80
2023-05-16T19:18:37.567Z,10.80
2023-05-16T19:21:04.494Z,10.80
2023-05-16T19:23:31.120Z,10.70
2023-05-16T19:25:57.727Z,10.70
2023-05-16T19:28:24.466Z,10.70
2023-05-16T19:30:51.182Z,10.60
2023-05-16T19:33:17.950Z,10.50
2023-05-16T19:35:44.563Z,10.40
2023-05-16T19:38:11.177Z,10.30
2023-05-16T19:40:37.956Z,10.30
2023-05-16T19:43:04.553Z,10.30
2023-05-16T19:45:31.252Z,10.20
2023-05-16T19:47:58.106Z,10.20
2023-05-16T19:50:24.779Z,10.20
2023-05-16T19:52:51.402Z,10.10
2023-05-16T19:55:18.074Z,10.10
2023-05-16T19:57:44.701Z,10.10
2023-05-16T20:00:12.114Z,10.00
2023-05-16T20:02:38.763Z,10.00
2023-05-16T20:05:05.820Z,9.90
2023-05-16T20:07:32.459Z,10.00
2023-05-16T20:09:59.165Z,10.00
2023-05-16T20:12:25.775Z,10.00
2023-05-16T20:14:52.416Z,9.90
2023-05-16T20:17:19.027Z,9.90
2023-05-16T20:19:45.655Z,9.90
2023-05-16T20:22:12.381Z,9.80
2023-05-16T20:24:38.978Z,9.90
2023-05-16T20:27:05.674Z,9.70
2023-05-16T20:29:32.305Z,9.70
2023-05-16T20:31:59.316Z,9.70
2023-05-16T20:34:26.044Z,9.70
2023-05-16T20:36:52.742Z,9.70
2023-05-16T20:39:19.334Z,9.60
2023-05-16T20:41:45.965Z,9.60
2023-05-16T20:44:12.551Z,9.60
2023-05-16T20:46:39.172Z,9.60
2023-05-16T20:49:05.820Z,9.60
2023-05-16T20:51:32.427Z,9.50
2023-05-16T20:53:59.075Z,9.50
2023-05-16T20:56:25.662Z,9.50
2023-05-16T20:58:52.254Z,9.40
2023-05-16T21:01:18.848Z,9.50
2023-05-16T21:03:45.476Z,9.40
2023-05-16T21:06:12.235Z,9.50
2023-05-16T21:08:39.181Z,9.50
2023-05-16T21:11:05.821Z,9.60
2023-05-16T21:13:32.489Z,9.50
2023-05-16T21:15:59.103Z,9.60
2023-05-16T21:18:25.827Z,9.50
2023-05-16T21:20:52.525Z,9.50
2023-05-16T21:23:19.163Z,9.60
2023-05-16T21:25:45.768Z,9.60
2023-05-16T21:28:12.342Z,9.40
2023-05-16T21:30:38.952Z,9.40
2023-05-16T21:33:05.625Z,9.50
2023-05-16T21:35:32.373Z,9.40
2023-05-16T21:37:58.965Z,9.60
2023-05-16T21:40:25.561Z,9.50
2023-05-16T21:42:52.784Z,9.40
2023-05-16T21:45:19.639Z,9.30
2023-05-16T21:47:46.898Z,9.30
2023-05-16T21:50:13.696Z,9.40
2023-05-16T21:52:40.615Z,9.40
2023-05-16T21:55:08.092Z,9.40
2023-05-16T21:57:34.681Z,9.40
2023-05-16T22:00:01.311Z,9.40
2023-05-16T22:02:27.943Z,9.40
2023-05-16T22:04:54.710Z,9.50
2023-05-16T22:07:21.546Z,9.50
2023-05-16T22:09:48.142Z,9.40
2023-05-16T22:12:14.748Z,9.40
2023-05-16T22:14:41.430Z,9.50
2023-05-16T22:17:08.073Z,9.50
2023-05-16T22:19:34.796Z,9.50
2023-05-16T22:22:01.455Z,9.50
2023-05-16T22:24:28.037Z,9.50
2023-05-16T22:26:54.661Z,9.40
2023-05-16T22:29:21.310Z,9.30
2023-05-16T22:31:47.932Z,9.30
2023-05-16T22:34:14.528Z,9.30
2023-05-16T22:36:41.132Z,9.30
2023-05-16T22:39:07.761Z,9.30
2023-05-16T22:41:34.365Z,9.20
2023-05-16T22:44:01.025Z,9.30
2023-05-16T22:46:27.628Z,9.40
2023-05-16T22:48:54.267Z,9.30
2023-05-16T22:51:21.104Z,9.10
2023-05-16T22:53:47.859Z,9.10
2023-05-16T22:56:14.496Z,9.10
2023-05-16T22:58:41.314Z,9.10
2023-05-16T23:01:07.972Z,9.20
2023-05-16T23:03:34.679Z,9.20
2023-05-16T23:06:01.373Z,9.30
2023-05-16T23:08:28.133Z,9.20
2023-05-16T23:10:54.782Z,9.20
2023-05-16T23:13:21.404Z,9.10
2023-05-16T23:15:48.010Z,9.00
2023-05-16T23:18:14.682Z,9.10
2023-05-16T23:20:41.413Z,9.00
2023-05-16T23:23:08.059Z,9.10
2023-05-16T23:25:34.669Z,9.10
2023-05-16T23:28:01.313Z,9.20
2023-05-16T23:30:28.026Z,9.20
2023-05-16T23:32:54.732Z,9.20
2023-05-16T23:35:21.651Z,9.00
2023-05-16T23:37:48.256Z,9.10
2023-05-16T23:40:14.964Z,9.10
2023-05-16T23:42:41.671Z,9.00
2023-05-16T23:45:09.095Z,9.00
2023-05-16T23:47:35.954Z,9.00
2023-05-16T23:50:03.020Z,9.10
2023-05-16T23:52:29.826Z,9.10
2023-05-16T23:54:56.431Z,9.00
2023-05-16T23:57:23.059Z,9.00
2023-05-16T23:59:49.652Z,8.90
